YMAY

Details ICAO YMAY (ABX)
Name Albury Airport
Region Australia
Timezone Australia/Sydney (UTC+11.0)
Plans Departing 19
Arriving 33
Stats Elevation 539 ft / 164 m (AMSL)
Location -36.066760° 146.959338°
Runways 1
Magnetic Variation 11.818° E
Sunrise 2017-12-12 18:50:21 UTC / 2017-12-13 05:50:21 Local
Sunset 2017-12-13 09:24:50 UTC / 2017-12-13 20:24:50 Local
Advertisement - Login to hide

Runways

ID Width Length Bearing (true) Bearing (mag) Surface Threshold Offset Overrun Length
07 98 ft / 30 m 6,222 ft / 1,897 m 81.11° 69.29° Asphalt 0 ft / 0 m 0 ft / 0 m
25 98 ft / 30 m 6,222 ft / 1,897 m 261.09° 249.27° Asphalt 0 ft / 0 m 0 ft / 0 m

Map

Weather


0- 5 10 15 20 25 30 35+ Temperature / ° C

Clouds and Precipitation
Forecast for 2017-12-13 00:00 UTC. Updated an hour ago

Ground ~20,000 ft ~40,000 ft Winds

METAR

YMAY 122100Z AUTO 00000KT 9999 // NCD 20/11 Q1013

TAF

Not found

Frequencies

Unicom 120.60 MHz ACTIVATE LIGHTS ONLY MULT
Tower 124.20 MHz ALBURY TWR
Unicom 124.20 MHz ALBURY MULT
Tower 125.20 MHz MELBOURNE CNTR
Warning: Do not use this data for real-world aviation or navigation. No guarantee of current accuracy is given.